createdAt,value
2022-11-02T00:00:32.533Z,11.10
2022-11-02T00:02:59.368Z,11.00
2022-11-02T00:05:26.587Z,11.00
2022-11-02T00:07:55.027Z,11.10
2022-11-02T00:10:23.075Z,11.10
2022-11-02T00:12:50.702Z,11.00
2022-11-02T00:15:18.329Z,10.90
2022-11-02T00:17:50.889Z,10.90
2022-11-02T00:20:19.521Z,10.90
2022-11-02T00:22:48.275Z,10.90
2022-11-02T00:25:18.159Z,10.90
2022-11-02T00:27:44.916Z,10.80
2022-11-02T00:30:11.792Z,10.70
2022-11-02T00:32:38.693Z,10.70
2022-11-02T00:35:06.247Z,10.60
2022-11-02T00:40:06.142Z,10.30
2022-11-02T00:42:32.917Z,10.10
2022-11-02T00:44:59.662Z,10.10
2022-11-02T00:47:26.417Z,10.10
2022-11-02T00:49:53.160Z,10.10
2022-11-02T00:52:19.892Z,10.10
2022-11-02T00:54:46.855Z,10.10
2022-11-02T00:57:13.766Z,10.10
2022-11-02T00:59:40.482Z,10.10
2022-11-02T01:02:07.421Z,10.20
2022-11-02T01:04:34.250Z,10.20
2022-11-02T01:07:02.947Z,10.30
2022-11-02T01:09:29.847Z,10.30
2022-11-02T01:11:56.611Z,10.40
2022-11-02T01:14:23.363Z,10.40
2022-11-02T01:16:50.294Z,10.30
2022-11-02T01:19:17.039Z,10.20
2022-11-02T01:21:43.796Z,10.20
2022-11-02T01:24:10.578Z,10.10
2022-11-02T01:26:37.421Z,10.10
2022-11-02T01:29:04.187Z,10.10
2022-11-02T01:31:30.923Z,10.00
2022-11-02T01:33:57.636Z,10.00
2022-11-02T01:36:24.413Z,10.00
2022-11-02T01:38:51.256Z,10.00
2022-11-02T01:41:18.510Z,10.10
2022-11-02T01:43:47.179Z,10.20
2022-11-02T01:46:21.686Z,10.30
2022-11-02T01:49:03.707Z,10.30
2022-11-02T01:51:38.374Z,10.40
2022-11-02T01:54:20.890Z,10.50
2022-11-02T01:56:53.593Z,10.50
2022-11-02T01:59:26.533Z,10.60
2022-11-02T02:01:54.532Z,10.70
2022-11-02T02:04:22.554Z,10.70
2022-11-02T02:06:50.301Z,10.80
2022-11-02T02:09:17.953Z,10.80
2022-11-02T02:11:44.694Z,10.90
2022-11-02T02:14:17.325Z,10.90
2022-11-02T02:17:08.813Z,11.00
2022-11-02T02:19:42.107Z,11.10
2022-11-02T02:22:27.500Z,11.30
2022-11-02T02:25:06.395Z,11.40
2022-11-02T02:28:21.288Z,11.60
2022-11-02T02:30:57.870Z,11.70
2022-11-02T02:33:28.620Z,11.80
2022-11-02T02:36:34.515Z,11.80
2022-11-02T02:39:07.475Z,11.80
2022-11-02T02:41:40.985Z,11.80
2022-11-02T02:44:16.256Z,11.90
2022-11-02T02:46:55.869Z,11.80
2022-11-02T02:49:29.018Z,11.80
2022-11-02T02:51:58.352Z,11.70
2022-11-02T02:54:36.411Z,11.70
2022-11-02T02:57:13.198Z,11.60
2022-11-02T02:59:45.925Z,11.60
2022-11-02T03:02:19.695Z,11.60
2022-11-02T03:04:46.618Z,11.60
2022-11-02T03:07:19.277Z,11.50
2022-11-02T03:09:57.309Z,11.40
2022-11-02T03:12:27.010Z,11.40
2022-11-02T03:15:16.062Z,11.30
2022-11-02T03:18:12.010Z,11.20
2022-11-02T03:21:07.774Z,11.10
2022-11-02T03:24:06.354Z,11.00
2022-11-02T03:26:46.641Z,10.90
2022-11-02T03:29:28.710Z,10.80
2022-11-02T03:32:00.454Z,10.60
2022-11-02T03:34:46.872Z,10.50
2022-11-02T03:37:22.599Z,10.50
2022-11-02T03:39:53.104Z,10.50
2022-11-02T03:42:23.819Z,10.40
2022-11-02T03:45:06.021Z,10.40
2022-11-02T03:47:34.231Z,10.40
2022-11-02T03:50:02.242Z,10.30
2022-11-02T03:52:32.138Z,10.40
2022-11-02T03:55:19.317Z,10.40
2022-11-02T03:57:48.049Z,10.50
2022-11-02T04:00:20.286Z,10.50
2022-11-02T04:02:51.296Z,10.40
2022-11-02T04:05:18.801Z,10.40
2022-11-02T04:08:09.297Z,10.40
2022-11-02T04:10:36.053Z,10.40
2022-11-02T04:13:21.474Z,10.40
2022-11-02T04:15:48.186Z,10.30
2022-11-02T04:18:33.428Z,10.40
2022-11-02T04:21:00.140Z,10.30
2022-11-02T04:23:45.505Z,10.30
2022-11-02T04:26:12.195Z,10.40
2022-11-02T04:28:38.905Z,10.40
2022-11-02T04:31:05.625Z,10.40
2022-11-02T04:33:35.267Z,10.40
2022-11-02T04:36:03.938Z,10.30
2022-11-02T04:38:40.668Z,10.30
2022-11-02T04:41:30.819Z,10.20
2022-11-02T04:43:58.046Z,10.00
2022-11-02T04:46:26.960Z,10.00
2022-11-02T04:48:53.878Z,9.90
2022-11-02T04:51:21.804Z,9.90
2022-11-02T04:53:49.328Z,9.90
2022-11-02T04:56:16.442Z,9.90
2022-11-02T04:58:43.356Z,10.00
2022-11-02T05:01:15.178Z,9.90
2022-11-02T05:03:42.784Z,9.90
2022-11-02T05:06:11.251Z,10.00
2022-11-02T05:08:38.677Z,10.00
2022-11-02T05:11:05.554Z,10.00
2022-11-02T05:13:32.590Z,10.00
2022-11-02T05:16:00.057Z,10.10
2022-11-02T05:18:28.179Z,10.10
2022-11-02T05:21:00.658Z,10.10
2022-11-02T05:23:28.439Z,10.20
2022-11-02T05:26:06.104Z,10.20
2022-11-02T05:28:33.597Z,10.20
2022-11-02T05:31:01.722Z,10.20
2022-11-02T05:33:30.835Z,10.20
2022-11-02T05:35:59.164Z,10.20
2022-11-02T05:38:26.944Z,10.20
2022-11-02T05:40:55.369Z,10.20
2022-11-02T05:43:22.182Z,10.20
2022-11-02T05:46:02.030Z,10.10
2022-11-02T05:48:32.910Z,10.10
2022-11-02T05:51:01.597Z,10.20
2022-11-02T05:53:33.851Z,10.20
2022-11-02T05:56:01.852Z,10.30
2022-11-02T05:58:29.214Z,10.30
2022-11-02T06:00:59.825Z,10.40
2022-11-02T06:03:26.585Z,10.30
2022-11-02T06:06:01.620Z,10.40
2022-11-02T06:08:31.114Z,10.40
2022-11-02T06:10:57.855Z,10.40
2022-11-02T06:13:24.596Z,10.40
2022-11-02T06:15:51.405Z,10.40
2022-11-02T06:18:18.158Z,10.40
2022-11-02T06:20:44.924Z,10.40
2022-11-02T06:23:14.436Z,10.50
2022-11-02T06:25:41.190Z,10.60
2022-11-02T06:28:07.941Z,10.60
2022-11-02T06:30:34.827Z,10.80
2022-11-02T06:33:06.767Z,10.80
2022-11-02T06:35:34.067Z,10.90
2022-11-02T06:38:00.813Z,11.00
2022-11-02T06:40:28.270Z,11.10
2022-11-02T06:45:46.382Z,11.20
2022-11-02T06:48:13.290Z,11.30
2022-11-02T06:50:40.063Z,11.30
2022-11-02T06:53:06.999Z,11.40
2022-11-02T06:55:34.094Z,11.50
2022-11-02T06:58:00.815Z,11.60
2022-11-02T07:00:27.634Z,11.70
2022-11-02T07:03:06.917Z,11.80
2022-11-02T07:05:34.249Z,11.80
2022-11-02T07:08:01.125Z,11.90
2022-11-02T07:10:28.748Z,11.90
2022-11-02T07:12:56.926Z,12.00
2022-11-02T07:15:25.969Z,12.10
2022-11-02T07:17:53.678Z,12.20
2022-11-02T07:20:21.153Z,12.30
2022-11-02T07:22:55.561Z,12.40
2022-11-02T07:25:22.769Z,12.60
2022-11-02T07:27:49.573Z,12.80
2022-11-02T07:30:16.706Z,12.90
2022-11-02T07:32:44.984Z,12.90
2022-11-02T07:35:15.573Z,13.10
2022-11-02T07:37:43.321Z,13.30
2022-11-02T07:40:11.626Z,13.40
2022-11-02T07:42:46.576Z,13.50
2022-11-02T07:45:13.935Z,13.60
2022-11-02T07:47:47.515Z,13.80
2022-11-02T07:50:16.755Z,13.90
2022-11-02T07:52:47.894Z,14.00
2022-11-02T07:55:16.315Z,14.10
2022-11-02T07:57:43.815Z,14.30
2022-11-02T08:00:12.027Z,14.40
2022-11-02T08:02:39.308Z,14.60
2022-11-02T08:05:06.601Z,14.70
2022-11-02T08:07:33.337Z,14.70
2022-11-02T08:10:00.071Z,14.80
2022-11-02T08:12:27.607Z,14.90
2022-11-02T08:14:54.435Z,15.00
2022-11-02T08:17:21.966Z,15.00
2022-11-02T08:19:48.730Z,15.00
2022-11-02T08:22:15.517Z,14.90
2022-11-02T08:24:42.215Z,14.90
2022-11-02T08:27:08.998Z,15.00
2022-11-02T08:29:36.863Z,15.00
2022-11-02T08:32:03.847Z,15.10
2022-11-02T08:34:30.586Z,15.10
2022-11-02T08:36:57.527Z,15.10
2022-11-02T08:39:24.296Z,15.10
2022-11-02T08:41:51.117Z,15.10
2022-11-02T08:44:17.879Z,15.10
2022-11-02T08:46:44.630Z,15.20
2022-11-02T08:49:11.463Z,15.10
2022-11-02T08:51:38.164Z,15.10
2022-11-02T08:54:04.994Z,15.00
2022-11-02T08:56:31.769Z,15.00
2022-11-02T08:58:58.468Z,15.00
2022-11-02T09:01:25.445Z,15.10
2022-11-02T09:03:52.254Z,15.00
2022-11-02T09:06:19.022Z,15.10
2022-11-02T09:08:45.802Z,15.10
2022-11-02T09:11:12.617Z,15.20
2022-11-02T09:13:39.809Z,15.10
2022-11-02T09:16:06.955Z,15.20
2022-11-02T09:18:33.718Z,15.20
2022-11-02T09:21:04.867Z,15.40
2022-11-02T09:23:32.064Z,15.40
2022-11-02T09:26:00.055Z,15.40
2022-11-02T09:28:27.070Z,15.40
2022-11-02T09:30:53.881Z,15.30
2022-11-02T09:33:20.671Z,15.30
2022-11-02T09:35:49.012Z,15.20
2022-11-02T09:38:18.317Z,15.10
2022-11-02T09:40:49.687Z,15.10
2022-11-02T09:43:37.680Z,15.20
2022-11-02T09:46:34.034Z,15.20
2022-11-02T09:49:06.169Z,15.20
2022-11-02T09:52:02.385Z,15.20
2022-11-02T09:54:47.401Z,15.20
2022-11-02T09:57:25.604Z,15.30
2022-11-02T09:59:52.403Z,15.30
2022-11-02T10:02:50.505Z,15.40
2022-11-02T10:05:46.307Z,15.50
2022-11-02T10:08:22.985Z,15.70
2022-11-02T10:11:18.833Z,15.80
2022-11-02T10:14:19.634Z,15.70
2022-11-02T10:16:52.419Z,15.80
2022-11-02T10:19:23.856Z,15.80
2022-11-02T10:21:57.263Z,15.70
2022-11-02T10:24:24.867Z,15.70
2022-11-02T10:26:56.794Z,15.70
2022-11-02T10:29:30.179Z,15.90
2022-11-02T10:31:56.966Z,15.80
2022-11-02T10:34:28.787Z,15.80
2022-11-02T10:37:47.307Z,15.70
2022-11-02T10:40:30.303Z,15.70
2022-11-02T10:43:26.941Z,15.60
2022-11-02T10:46:02.197Z,15.60
2022-11-02T10:48:48.147Z,15.60
2022-11-02T10:51:17.747Z,15.60
2022-11-02T10:53:50.995Z,15.70
2022-11-02T10:56:21.498Z,15.80
2022-11-02T10:58:54.713Z,15.80
2022-11-02T11:01:21.668Z,15.80
2022-11-02T11:04:04.386Z,15.70
2022-11-02T11:06:43.043Z,15.80
2022-11-02T11:09:15.820Z,15.80
2022-11-02T11:11:55.708Z,15.80
2022-11-02T11:20:41.354Z,15.80
2022-11-02T11:23:25.530Z,15.90
2022-11-02T11:26:05.272Z,16.10
2022-11-02T11:28:33.533Z,16.20
2022-11-02T11:31:17.442Z,16.00
2022-11-02T11:33:58.251Z,16.10
2022-11-02T11:36:30.711Z,16.00
2022-11-02T11:39:07.675Z,16.00
2022-11-02T11:41:40.065Z,16.00
2022-11-02T11:44:14.572Z,15.90
2022-11-02T11:46:47.609Z,15.90
2022-11-02T11:49:35.912Z,15.90
2022-11-02T11:52:17.443Z,16.00
2022-11-02T11:54:53.468Z,16.00
2022-11-02T11:57:23.372Z,16.00
2022-11-02T11:59:58.790Z,16.00
2022-11-02T12:02:32.265Z,16.00
2022-11-02T12:05:02.210Z,16.00
2022-11-02T12:07:34.663Z,16.10
2022-11-02T12:10:08.636Z,16.00
2022-11-02T12:12:53.950Z,16.10
2022-11-02T12:15:26.267Z,16.00
2022-11-02T12:18:05.196Z,16.00
2022-11-02T12:20:39.493Z,15.90
2022-11-02T12:23:24.947Z,15.90
2022-11-02T12:26:26.832Z,16.00
2022-11-02T12:29:18.613Z,16.20
2022-11-02T12:32:02.513Z,16.20
2022-11-02T12:34:46.584Z,16.20
2022-11-02T12:37:46.464Z,16.10
2022-11-02T12:40:41.366Z,16.10
2022-11-02T12:43:26.877Z,16.10
2022-11-02T12:46:16.387Z,16.10
2022-11-02T12:49:08.875Z,16.20
2022-11-02T12:52:06.456Z,16.20
2022-11-02T12:54:43.374Z,16.30
2022-11-02T12:57:18.693Z,16.30
2022-11-02T12:59:46.532Z,16.30
2022-11-02T13:02:15.236Z,16.30
2022-11-02T13:05:05.655Z,16.20
2022-11-02T13:07:41.484Z,16.30
2022-11-02T13:10:19.318Z,16.20
2022-11-02T13:12:52.552Z,16.20
2022-11-02T13:15:23.204Z,16.20
2022-11-02T13:17:52.990Z,16.10
2022-11-02T13:20:27.461Z,16.10
2022-11-02T13:23:07.265Z,16.00
2022-11-02T13:25:50.055Z,16.10
2022-11-02T13:28:38.022Z,16.10
2022-11-02T13:31:12.704Z,16.10
2022-11-02T13:33:48.080Z,15.90
2022-11-02T13:36:15.522Z,15.80
2022-11-02T13:38:53.688Z,15.80
2022-11-02T13:41:54.246Z,15.80
2022-11-02T13:44:33.102Z,15.80
2022-11-02T13:47:24.678Z,15.80
2022-11-02T13:49:53.547Z,15.70
2022-11-02T13:52:42.087Z,15.70
2022-11-02T13:55:15.604Z,15.70
2022-11-02T13:57:49.894Z,15.70
2022-11-02T14:00:22.716Z,15.60
2022-11-02T14:02:53.810Z,15.60
2022-11-02T14:05:41.196Z,15.70
2022-11-02T14:08:11.024Z,15.60
2022-11-02T14:10:41.029Z,15.60
2022-11-02T14:13:17.370Z,15.50
2022-11-02T14:15:44.415Z,15.50
2022-11-02T14:18:16.026Z,15.40
2022-11-02T14:20:47.390Z,15.40
2022-11-02T14:23:14.485Z,15.40
2022-11-02T14:25:48.713Z,15.40
2022-11-02T14:28:21.870Z,15.30
2022-11-02T14:31:03.866Z,15.30
2022-11-02T14:33:57.700Z,15.20
2022-11-02T14:36:39.263Z,15.10
2022-11-02T14:39:22.629Z,15.00
2022-11-02T14:42:10.836Z,15.00
2022-11-02T14:45:14.311Z,14.90
2022-11-02T14:47:41.259Z,14.80
2022-11-02T14:50:10.895Z,14.80
2022-11-02T14:52:38.673Z,14.80
2022-11-02T14:55:27.637Z,14.80
2022-11-02T14:57:59.551Z,14.80
2022-11-02T15:00:35.477Z,14.70
2022-11-02T15:03:05.815Z,14.70
2022-11-02T15:05:37.856Z,14.70
2022-11-02T15:08:16.024Z,14.70
2022-11-02T15:10:45.556Z,14.60
2022-11-02T15:13:21.454Z,14.60
2022-11-02T15:15:50.938Z,14.60
2022-11-02T15:18:22.933Z,14.60
2022-11-02T15:21:11.395Z,14.60
2022-11-02T15:23:48.941Z,14.40
2022-11-02T15:26:45.807Z,14.40
2022-11-02T15:29:37.409Z,14.40
2022-11-02T15:32:09.907Z,14.50
2022-11-02T15:34:45.558Z,14.50
2022-11-02T15:37:18.436Z,14.50
2022-11-02T15:39:54.004Z,14.40
2022-11-02T15:42:48.279Z,14.40
2022-11-02T15:45:46.486Z,14.30
2022-11-02T15:48:36.241Z,14.30
2022-11-02T15:51:11.984Z,14.10
2022-11-02T15:54:00.818Z,14.00
2022-11-02T15:56:49.353Z,14.00
2022-11-02T15:59:18.781Z,14.00
2022-11-02T16:01:45.798Z,13.90
2022-11-02T16:04:21.348Z,13.80
2022-11-02T16:06:49.572Z,13.70
2022-11-02T16:09:37.831Z,13.70
2022-11-02T16:12:24.333Z,13.50
2022-11-02T16:14:55.933Z,13.40
2022-11-02T16:17:31.577Z,13.20
2022-11-02T16:20:11.937Z,13.10
2022-11-02T16:22:39.154Z,13.10
2022-11-02T16:25:19.511Z,13.00
2022-11-02T16:27:46.411Z,12.90
2022-11-02T16:30:23.066Z,12.90
2022-11-02T16:32:58.652Z,12.90
2022-11-02T16:35:27.119Z,12.90
2022-11-02T16:37:53.885Z,12.80
2022-11-02T16:40:21.204Z,12.80
2022-11-02T16:42:51.575Z,12.80
2022-11-02T16:45:38.591Z,12.80
2022-11-02T16:48:17.048Z,12.60
2022-11-02T16:51:16.359Z,12.50
2022-11-02T16:53:43.707Z,12.40
2022-11-02T16:56:29.355Z,12.30
2022-11-02T16:59:04.841Z,12.10
2022-11-02T17:01:37.777Z,12.10
2022-11-02T17:04:24.182Z,12.10
2022-11-02T17:06:54.491Z,12.10
2022-11-02T17:09:23.046Z,12.00
2022-11-02T17:11:50.811Z,12.00
2022-11-02T17:14:20.289Z,12.00
2022-11-02T17:17:27.140Z,11.90
2022-11-02T17:20:06.318Z,11.80
2022-11-02T17:22:37.217Z,11.70
2022-11-02T17:25:18.856Z,11.60
2022-11-02T17:27:46.760Z,11.60
2022-11-02T17:30:35.364Z,11.60
2022-11-02T17:33:08.971Z,11.50
2022-11-02T17:35:36.168Z,11.40
2022-11-02T17:38:03.613Z,11.40
2022-11-02T17:40:31.908Z,11.20
2022-11-02T17:42:58.666Z,11.20
2022-11-02T17:45:29.843Z,11.20
2022-11-02T17:48:02.104Z,11.30
2022-11-02T17:50:31.497Z,11.40
2022-11-02T17:52:59.756Z,11.30
2022-11-02T17:55:31.753Z,11.30
2022-11-02T17:57:58.844Z,11.20
2022-11-02T18:00:27.826Z,11.20
2022-11-02T18:02:56.766Z,11.10
2022-11-02T18:05:28.116Z,11.00
2022-11-02T18:07:57.354Z,11.00
2022-11-02T18:10:37.402Z,11.10
2022-11-02T18:13:04.426Z,11.10
2022-11-02T18:15:33.010Z,11.00
2022-11-02T18:18:00.237Z,11.00
2022-11-02T18:20:28.615Z,11.00
2022-11-02T18:22:57.058Z,10.90
2022-11-02T18:25:26.491Z,10.90
2022-11-02T18:27:54.007Z,10.80
2022-11-02T18:30:20.893Z,10.70
2022-11-02T18:32:47.957Z,10.60
2022-11-02T18:35:19.757Z,10.60
2022-11-02T18:37:47.054Z,10.50
2022-11-02T18:40:16.993Z,10.50
2022-11-02T18:42:44.384Z,10.50
2022-11-02T18:45:13.570Z,10.50
2022-11-02T18:47:41.591Z,10.40
2022-11-02T18:50:10.490Z,10.40
2022-11-02T18:52:37.332Z,10.40
2022-11-02T18:55:05.296Z,10.30
2022-11-02T18:57:32.864Z,10.30
2022-11-02T19:00:02.287Z,10.30
2022-11-02T19:02:29.551Z,10.20
2022-11-02T19:04:56.402Z,10.10
2022-11-02T19:07:41.593Z,10.20
2022-11-02T19:10:08.843Z,10.10
2022-11-02T19:12:35.873Z,10.00
2022-11-02T19:15:02.767Z,10.10
2022-11-02T19:17:29.932Z,10.10
2022-11-02T19:19:57.260Z,10.10
2022-11-02T19:22:25.973Z,9.90
2022-11-02T19:24:52.814Z,9.90
2022-11-02T19:27:21.979Z,9.90
2022-11-02T19:29:49.083Z,9.80
2022-11-02T19:32:16.588Z,9.80
2022-11-02T19:34:43.761Z,9.80
2022-11-02T19:37:10.661Z,9.80
2022-11-02T19:39:37.418Z,9.70
2022-11-02T19:42:07.148Z,9.70
2022-11-02T19:44:37.086Z,9.70
2022-11-02T19:47:09.009Z,9.70
2022-11-02T19:49:35.744Z,9.80
2022-11-02T19:52:02.592Z,9.80
2022-11-02T19:54:29.393Z,9.70
2022-11-02T19:56:56.178Z,9.70
2022-11-02T19:59:22.931Z,9.80
2022-11-02T20:01:51.020Z,9.70
2022-11-02T20:04:17.890Z,9.60
2022-11-02T20:06:45.081Z,9.60
2022-11-02T20:09:17.593Z,9.60
2022-11-02T20:11:45.518Z,9.60
2022-11-02T20:14:14.524Z,9.70
2022-11-02T20:16:41.747Z,9.70
2022-11-02T20:19:09.284Z,9.80
2022-11-02T20:21:41.616Z,9.70
2022-11-02T20:24:10.381Z,9.50
2022-11-02T20:26:38.109Z,9.50
2022-11-02T20:29:06.351Z,9.40
2022-11-02T20:31:36.352Z,9.30
2022-11-02T20:34:06.363Z,9.30
2022-11-02T20:36:34.675Z,9.20
2022-11-02T20:39:03.368Z,9.10
2022-11-02T20:41:30.171Z,9.10
2022-11-02T20:43:56.984Z,9.10
2022-11-02T20:46:42.397Z,9.10
2022-11-02T20:51:57.553Z,8.90
2022-11-02T20:54:25.101Z,9.00
2022-11-02T20:56:51.887Z,9.00
2022-11-02T20:59:18.843Z,9.00
2022-11-02T21:01:46.162Z,9.10
2022-11-02T21:04:19.807Z,9.00
2022-11-02T21:06:49.115Z,9.10
2022-11-02T21:09:15.949Z,8.90
2022-11-02T21:12:01.310Z,8.90
2022-11-02T21:14:28.037Z,8.90
2022-11-02T21:16:55.421Z,9.00
2022-11-02T21:19:22.215Z,9.00
2022-11-02T21:21:49.045Z,9.00
2022-11-02T21:24:15.712Z,8.90
2022-11-02T21:26:42.477Z,8.90
2022-11-02T21:29:09.654Z,8.80
2022-11-02T21:31:36.836Z,8.70
2022-11-02T21:34:04.314Z,8.70
2022-11-02T21:36:31.164Z,8.60
2022-11-02T21:38:58.873Z,8.50
2022-11-02T21:41:28.157Z,8.40
2022-11-02T21:43:55.885Z,8.40
2022-11-02T21:46:25.525Z,8.40
2022-11-02T21:48:52.488Z,8.30
2022-11-02T21:51:20.968Z,8.40
2022-11-02T21:53:50.063Z,8.40
2022-11-02T21:56:27.728Z,8.30
2022-11-02T21:58:55.940Z,8.20
2022-11-02T22:01:43.587Z,8.20
2022-11-02T22:04:25.208Z,8.20
2022-11-02T22:06:52.732Z,8.20
2022-11-02T22:09:19.590Z,8.30
2022-11-02T22:11:46.377Z,8.30
2022-11-02T22:14:14.193Z,8.20
2022-11-02T22:16:42.837Z,8.20
2022-11-02T22:19:14.380Z,8.10
2022-11-02T22:21:44.147Z,8.10
2022-11-02T22:24:11.844Z,8.20
2022-11-02T22:26:39.668Z,8.20
2022-11-02T22:29:06.609Z,8.20
2022-11-02T22:31:35.808Z,8.10
2022-11-02T22:34:04.372Z,8.00
2022-11-02T22:36:33.311Z,8.10
2022-11-02T22:39:01.537Z,8.10
2022-11-02T22:41:35.175Z,8.10
2022-11-02T22:44:04.993Z,8.10
2022-11-02T22:46:34.524Z,8.10
2022-11-02T22:49:02.774Z,8.10
2022-11-02T22:51:31.624Z,8.00
2022-11-02T22:54:03.171Z,7.90
2022-11-02T22:56:30.420Z,7.80
2022-11-02T22:58:57.959Z,7.80
2022-11-02T23:01:26.874Z,7.80
2022-11-02T23:03:53.836Z,7.80
2022-11-02T23:06:22.282Z,7.80
2022-11-02T23:08:50.993Z,7.70
2022-11-02T23:11:21.764Z,7.80
2022-11-02T23:14:06.947Z,7.80
2022-11-02T23:16:36.251Z,7.80
2022-11-02T23:19:26.476Z,7.80
2022-11-02T23:22:27.429Z,7.70
2022-11-02T23:25:13.533Z,7.50
2022-11-02T23:28:01.979Z,7.50
2022-11-02T23:30:52.558Z,7.50
2022-11-02T23:33:19.709Z,7.50
2022-11-02T23:36:05.287Z,7.40
2022-11-02T23:38:50.866Z,7.50
2022-11-02T23:41:18.901Z,7.50
2022-11-02T23:43:46.286Z,7.50
2022-11-02T23:46:13.490Z,7.60
2022-11-02T23:48:45.866Z,7.60
2022-11-02T23:51:33.646Z,7.70
2022-11-02T23:54:19.000Z,7.60
2022-11-02T23:56:45.962Z,7.60
2022-11-02T23:59:14.489Z,7.50
